sensor_id;sensor_type;location;lat;lon;timestamp;temperature;humidity
51950;DHT22;37974;53.218;6.640;2023-06-10T00:00:13;16.20;99.90
51950;DHT22;37974;53.218;6.640;2023-06-10T00:02:41;16.20;99.90
51950;DHT22;37974;53.218;6.640;2023-06-10T00:05:07;16.10;99.90
51950;DHT22;37974;53.218;6.640;2023-06-10T00:07:35;16.00;99.90
51950;DHT22;37974;53.218;6.640;2023-06-10T00:10:07;15.90;99.90
51950;DHT22;37974;53.218;6.640;2023-06-10T00:12:33;15.90;99.90
51950;DHT22;37974;53.218;6.640;2023-06-10T00:15:04;15.80;99.90
51950;DHT22;37974;53.218;6.640;2023-06-10T00:17:30;15.80;99.90
51950;DHT22;37974;53.218;6.640;2023-06-10T00:19:56;15.70;99.90
51950;DHT22;37974;53.218;6.640;2023-06-10T00:22:23;15.70;99.90
51950;DHT22;37974;53.218;6.640;2023-06-10T00:24:50;15.60;99.90
51950;DHT22;37974;53.218;6.640;2023-06-10T00:27:16;15.60;99.90
51950;DHT22;37974;53.218;6.640;2023-06-10T00:29:42;15.50;99.90
51950;DHT22;37974;53.218;6.640;2023-06-10T00:32:08;15.40;99.90
51950;DHT22;37974;53.218;6.640;2023-06-10T00:34:33;15.40;99.90
51950;DHT22;37974;53.218;6.640;2023-06-10T00:36:59;15.30;99.90
51950;DHT22;37974;53.218;6.640;2023-06-10T00:39:25;15.20;99.90
51950;DHT22;37974;53.218;6.640;2023-06-10T00:41:50;15.20;99.90
51950;DHT22;37974;53.218;6.640;2023-06-10T00:44:16;15.20;99.90
51950;DHT22;37974;53.218;6.640;2023-06-10T00:46:42;15.10;99.90
51950;DHT22;37974;53.218;6.640;2023-06-10T00:49:09;15.10;99.90
51950;DHT22;37974;53.218;6.640;2023-06-10T00:51:35;15.00;99.90
51950;DHT22;37974;53.218;6.640;2023-06-10T00:54:02;14.90;99.90
51950;DHT22;37974;53.218;6.640;2023-06-10T00:56:28;14.90;99.90
51950;DHT22;37974;53.218;6.640;2023-06-10T00:58:54;14.80;99.90
51950;DHT22;37974;53.218;6.640;2023-06-10T01:01:20;14.70;99.90
51950;DHT22;37974;53.218;6.640;2023-06-10T01:03:46;14.70;99.90
51950;DHT22;37974;53.218;6.640;2023-06-10T01:06:20;14.60;99.90
51950;DHT22;37974;53.218;6.640;2023-06-10T01:08:56;14.60;99.90
51950;DHT22;37974;53.218;6.640;2023-06-10T01:11:31;14.50;99.90
51950;DHT22;37974;53.218;6.640;2023-06-10T01:13:58;14.40;99.90
51950;DHT22;37974;53.218;6.640;2023-06-10T01:16:25;14.50;99.90
51950;DHT22;37974;53.218;6.640;2023-06-10T01:18:51;14.50;99.90
51950;DHT22;37974;53.218;6.640;2023-06-10T01:21:22;14.40;99.90
51950;DHT22;37974;53.218;6.640;2023-06-10T01:23:51;14.40;99.90
51950;DHT22;37974;53.218;6.640;2023-06-10T01:26:26;14.40;99.90
51950;DHT22;37974;53.218;6.640;2023-06-10T01:29:00;14.40;99.90
51950;DHT22;37974;53.218;6.640;2023-06-10T01:31:42;14.30;99.90
51950;DHT22;37974;53.218;6.640;2023-06-10T01:34:14;14.30;99.90
51950;DHT22;37974;53.218;6.640;2023-06-10T01:36:41;14.20;99.90
51950;DHT22;37974;53.218;6.640;2023-06-10T01:39:11;14.20;99.90
51950;DHT22;37974;53.218;6.640;2023-06-10T01:41:37;14.20;99.90
51950;DHT22;37974;53.218;6.640;2023-06-10T01:44:03;14.20;99.90
51950;DHT22;37974;53.218;6.640;2023-06-10T01:46:29;14.10;99.90
51950;DHT22;37974;53.218;6.640;2023-06-10T01:48:56;14.10;99.90
51950;DHT22;37974;53.218;6.640;2023-06-10T01:51:22;14.00;99.90
51950;DHT22;37974;53.218;6.640;2023-06-10T01:53:47;14.00;99.90
51950;DHT22;37974;53.218;6.640;2023-06-10T01:56:13;13.90;99.90
51950;DHT22;37974;53.218;6.640;2023-06-10T01:58:43;13.90;99.90
51950;DHT22;37974;53.218;6.640;2023-06-10T02:01:10;13.90;99.90
51950;DHT22;37974;53.218;6.640;2023-06-10T02:03:38;13.80;99.90
51950;DHT22;37974;53.218;6.640;2023-06-10T02:06:04;13.80;99.90
51950;DHT22;37974;53.218;6.640;2023-06-10T02:08:30;13.70;99.90
51950;DHT22;37974;53.218;6.640;2023-06-10T02:10:56;13.70;99.90
51950;DHT22;37974;53.218;6.640;2023-06-10T02:13:22;13.70;99.90
51950;DHT22;37974;53.218;6.640;2023-06-10T02:15:48;13.60;99.90
51950;DHT22;37974;53.218;6.640;2023-06-10T02:18:13;13.70;99.90
51950;DHT22;37974;53.218;6.640;2023-06-10T02:20:39;13.70;99.90
51950;DHT22;37974;53.218;6.640;2023-06-10T02:23:10;13.70;99.90
51950;DHT22;37974;53.218;6.640;2023-06-10T02:25:56;13.70;99.90
51950;DHT22;37974;53.218;6.640;2023-06-10T02:28:22;13.80;99.90
51950;DHT22;37974;53.218;6.640;2023-06-10T02:31:13;13.70;99.90
51950;DHT22;37974;53.218;6.640;2023-06-10T02:33:39;13.70;99.90
51950;DHT22;37974;53.218;6.640;2023-06-10T02:36:08;13.70;99.90
51950;DHT22;37974;53.218;6.640;2023-06-10T02:38:56;13.70;99.90
51950;DHT22;37974;53.218;6.640;2023-06-10T02:41:22;13.80;99.90
51950;DHT22;37974;53.218;6.640;2023-06-10T02:43:50;13.70;99.90
51950;DHT22;37974;53.218;6.640;2023-06-10T02:46:16;13.70;99.90
51950;DHT22;37974;53.218;6.640;2023-06-10T02:48:43;13.70;99.90
51950;DHT22;37974;53.218;6.640;2023-06-10T02:51:13;13.70;99.90
51950;DHT22;37974;53.218;6.640;2023-06-10T02:54:00;13.70;99.90
51950;DHT22;37974;53.218;6.640;2023-06-10T02:56:26;13.60;99.90
51950;DHT22;37974;53.218;6.640;2023-06-10T02:59:39;13.60;99.90
51950;DHT22;37974;53.218;6.640;2023-06-10T03:02:59;13.60;99.90
51950;DHT22;37974;53.218;6.640;2023-06-10T03:05:31;13.50;99.90
51950;DHT22;37974;53.218;6.640;2023-06-10T03:08:34;13.50;99.90
51950;DHT22;37974;53.218;6.640;2023-06-10T03:11:33;13.40;99.90
51950;DHT22;37974;53.218;6.640;2023-06-10T03:14:05;13.50;99.90
51950;DHT22;37974;53.218;6.640;2023-06-10T03:16:34;13.50;99.90
51950;DHT22;37974;53.218;6.640;2023-06-10T03:19:00;13.50;99.90
51950;DHT22;37974;53.218;6.640;2023-06-10T03:24:31;13.50;99.90
51950;DHT22;37974;53.218;6.640;2023-06-10T03:26:56;13.50;99.90
51950;DHT22;37974;53.218;6.640;2023-06-10T03:29:31;13.60;99.90
51950;DHT22;37974;53.218;6.640;2023-06-10T03:31:57;13.50;99.90
51950;DHT22;37974;53.218;6.640;2023-06-10T03:37:33;13.50;99.90
51950;DHT22;37974;53.218;6.640;2023-06-10T03:40:44;13.50;99.90
51950;DHT22;37974;53.218;6.640;2023-06-10T03:49:37;13.60;99.90
51950;DHT22;37974;53.218;6.640;2023-06-10T03:52:06;13.60;99.90
51950;DHT22;37974;53.218;6.640;2023-06-10T03:54:35;13.60;99.90
51950;DHT22;37974;53.218;6.640;2023-06-10T03:57:01;13.60;99.90
51950;DHT22;37974;53.218;6.640;2023-06-10T03:59:34;13.70;99.90
51950;DHT22;37974;53.218;6.640;2023-06-10T04:02:00;13.70;99.90
51950;DHT22;37974;53.218;6.640;2023-06-10T04:04:29;13.80;99.90
51950;DHT22;37974;53.218;6.640;2023-06-10T04:06:59;13.80;99.90
51950;DHT22;37974;53.218;6.640;2023-06-10T04:09:28;13.90;99.90
51950;DHT22;37974;53.218;6.640;2023-06-10T04:11:58;13.80;99.90
51950;DHT22;37974;53.218;6.640;2023-06-10T04:15:11;13.90;99.90
51950;DHT22;37974;53.218;6.640;2023-06-10T04:18:29;13.90;99.90
51950;DHT22;37974;53.218;6.640;2023-06-10T04:21:17;14.00;99.90
51950;DHT22;37974;53.218;6.640;2023-06-10T04:24:30;14.00;99.90
51950;DHT22;37974;53.218;6.640;2023-06-10T04:27:23;14.00;99.90
51950;DHT22;37974;53.218;6.640;2023-06-10T04:30:10;14.10;99.90
51950;DHT22;37974;53.218;6.640;2023-06-10T04:32:57;14.10;99.90
51950;DHT22;37974;53.218;6.640;2023-06-10T04:35:23;14.20;99.90
51950;DHT22;37974;53.218;6.640;2023-06-10T04:37:49;14.20;99.90
51950;DHT22;37974;53.218;6.640;2023-06-10T04:40:15;14.20;99.90
51950;DHT22;37974;53.218;6.640;2023-06-10T04:43:04;14.20;99.90
51950;DHT22;37974;53.218;6.640;2023-06-10T04:45:30;14.30;99.90
51950;DHT22;37974;53.218;6.640;2023-06-10T04:48:28;13.90;99.90
51950;DHT22;37974;53.218;6.640;2023-06-10T04:51:20;14.40;99.90
51950;DHT22;37974;53.218;6.640;2023-06-10T04:53:48;14.40;99.90
51950;DHT22;37974;53.218;6.640;2023-06-10T04:56:14;14.50;99.90
51950;DHT22;37974;53.218;6.640;2023-06-10T04:59:00;14.40;99.90
51950;DHT22;37974;53.218;6.640;2023-06-10T05:01:32;14.90;99.90
51950;DHT22;37974;53.218;6.640;2023-06-10T05:04:09;14.70;99.90
51950;DHT22;37974;53.218;6.640;2023-06-10T05:07:55;14.80;99.90
51950;DHT22;37974;53.218;6.640;2023-06-10T05:10:32;14.80;99.90
51950;DHT22;37974;53.218;6.640;2023-06-10T05:13:52;14.90;99.90
51950;DHT22;37974;53.218;6.640;2023-06-10T05:17:21;14.80;99.90
51950;DHT22;37974;53.218;6.640;2023-06-10T05:20:46;15.10;99.90
51950;DHT22;37974;53.218;6.640;2023-06-10T05:23:23;15.20;99.90
51950;DHT22;37974;53.218;6.640;2023-06-10T05:25:52;15.30;99.90
51950;DHT22;37974;53.218;6.640;2023-06-10T05:28:39;15.30;99.90
51950;DHT22;37974;53.218;6.640;2023-06-10T05:34:48;15.40;99.90
51950;DHT22;37974;53.218;6.640;2023-06-10T05:37:56;15.30;99.90
51950;DHT22;37974;53.218;6.640;2023-06-10T05:41:13;15.50;99.90
51950;DHT22;37974;53.218;6.640;2023-06-10T05:44:09;15.70;99.90
51950;DHT22;37974;53.218;6.640;2023-06-10T05:46:43;15.80;99.90
51950;DHT22;37974;53.218;6.640;2023-06-10T05:49:44;16.00;99.90
51950;DHT22;37974;53.218;6.640;2023-06-10T05:52:20;16.10;99.90
51950;DHT22;37974;53.218;6.640;2023-06-10T05:55:35;16.10;99.90
51950;DHT22;37974;53.218;6.640;2023-06-10T05:58:04;16.20;99.90
51950;DHT22;37974;53.218;6.640;2023-06-10T06:00:30;16.30;99.90
51950;DHT22;37974;53.218;6.640;2023-06-10T06:02:55;16.40;99.90
51950;DHT22;37974;53.218;6.640;2023-06-10T06:05:24;16.40;99.90
51950;DHT22;37974;53.218;6.640;2023-06-10T06:08:13;16.50;99.90
51950;DHT22;37974;53.218;6.640;2023-06-10T06:10:39;16.50;99.90
51950;DHT22;37974;53.218;6.640;2023-06-10T06:13:05;16.60;99.90
51950;DHT22;37974;53.218;6.640;2023-06-10T06:16:17;16.60;99.90
51950;DHT22;37974;53.218;6.640;2023-06-10T06:22:23;16.80;99.90
51950;DHT22;37974;53.218;6.640;2023-06-10T06:25:15;16.90;99.90
51950;DHT22;37974;53.218;6.640;2023-06-10T06:28:09;17.00;99.90
51950;DHT22;37974;53.218;6.640;2023-06-10T06:31:23;17.00;99.90
51950;DHT22;37974;53.218;6.640;2023-06-10T06:33:49;17.20;99.90
51950;DHT22;37974;53.218;6.640;2023-06-10T06:36:15;17.30;99.90
51950;DHT22;37974;53.218;6.640;2023-06-10T06:38:40;17.40;99.90
51950;DHT22;37974;53.218;6.640;2023-06-10T06:41:06;17.50;99.90
51950;DHT22;37974;53.218;6.640;2023-06-10T06:43:32;17.60;99.90
51950;DHT22;37974;53.218;6.640;2023-06-10T06:46:07;17.60;99.90
51950;DHT22;37974;53.218;6.640;2023-06-10T06:48:36;17.70;99.90
51950;DHT22;37974;53.218;6.640;2023-06-10T06:51:02;17.80;99.90
51950;DHT22;37974;53.218;6.640;2023-06-10T06:53:31;17.90;99.90
51950;DHT22;37974;53.218;6.640;2023-06-10T06:55:56;17.90;99.90
51950;DHT22;37974;53.218;6.640;2023-06-10T06:58:22;18.10;99.90
51950;DHT22;37974;53.218;6.640;2023-06-10T07:00:48;18.20;99.90
51950;DHT22;37974;53.218;6.640;2023-06-10T07:03:14;18.30;99.90
51950;DHT22;37974;53.218;6.640;2023-06-10T07:05:39;18.40;99.90
51950;DHT22;37974;53.218;6.640;2023-06-10T07:08:05;18.40;99.90
51950;DHT22;37974;53.218;6.640;2023-06-10T07:10:31;18.50;99.90
51950;DHT22;37974;53.218;6.640;2023-06-10T07:13:06;18.60;99.90
51950;DHT22;37974;53.218;6.640;2023-06-10T07:15:35;18.70;99.90
51950;DHT22;37974;53.218;6.640;2023-06-10T07:18:00;18.70;99.90
51950;DHT22;37974;53.218;6.640;2023-06-10T07:20:26;18.80;99.90
51950;DHT22;37974;53.218;6.640;2023-06-10T07:22:52;18.80;99.90
51950;DHT22;37974;53.218;6.640;2023-06-10T07:25:18;18.90;99.90
51950;DHT22;37974;53.218;6.640;2023-06-10T07:27:43;19.00;99.90
51950;DHT22;37974;53.218;6.640;2023-06-10T07:30:09;19.10;99.90
51950;DHT22;37974;53.218;6.640;2023-06-10T07:32:36;19.20;99.90
51950;DHT22;37974;53.218;6.640;2023-06-10T07:35:02;19.30;99.90
51950;DHT22;37974;53.218;6.640;2023-06-10T07:37:28;19.40;99.90
51950;DHT22;37974;53.218;6.640;2023-06-10T07:39:53;19.50;99.90
51950;DHT22;37974;53.218;6.640;2023-06-10T07:42:19;19.60;99.90
51950;DHT22;37974;53.218;6.640;2023-06-10T07:44:45;19.60;99.90
51950;DHT22;37974;53.218;6.640;2023-06-10T07:47:11;19.60;99.90
51950;DHT22;37974;53.218;6.640;2023-06-10T07:49:36;19.70;99.90
51950;DHT22;37974;53.218;6.640;2023-06-10T07:52:02;19.90;99.90
51950;DHT22;37974;53.218;6.640;2023-06-10T07:54:28;19.90;99.90
51950;DHT22;37974;53.218;6.640;2023-06-10T07:56:54;20.00;99.90
51950;DHT22;37974;53.218;6.640;2023-06-10T07:59:20;20.00;99.90
51950;DHT22;37974;53.218;6.640;2023-06-10T08:01:45;20.00;99.90
51950;DHT22;37974;53.218;6.640;2023-06-10T08:04:11;20.10;99.90
51950;DHT22;37974;53.218;6.640;2023-06-10T08:06:37;20.20;99.90
51950;DHT22;37974;53.218;6.640;2023-06-10T08:09:03;20.20;99.90
51950;DHT22;37974;53.218;6.640;2023-06-10T08:11:30;20.20;99.90
51950;DHT22;37974;53.218;6.640;2023-06-10T08:13:56;20.30;99.90
51950;DHT22;37974;53.218;6.640;2023-06-10T08:16:22;20.40;99.90
51950;DHT22;37974;53.218;6.640;2023-06-10T08:18:48;20.50;99.90
51950;DHT22;37974;53.218;6.640;2023-06-10T08:21:16;20.70;99.90
51950;DHT22;37974;53.218;6.640;2023-06-10T08:23:41;20.70;99.90
51950;DHT22;37974;53.218;6.640;2023-06-10T08:26:07;20.90;99.90
51950;DHT22;37974;53.218;6.640;2023-06-10T08:28:36;21.00;99.90
51950;DHT22;37974;53.218;6.640;2023-06-10T08:31:02;21.00;99.90
51950;DHT22;37974;53.218;6.640;2023-06-10T08:33:28;21.00;99.90
51950;DHT22;37974;53.218;6.640;2023-06-10T08:35:56;21.10;99.90
51950;DHT22;37974;53.218;6.640;2023-06-10T08:38:21;21.20;99.90
51950;DHT22;37974;53.218;6.640;2023-06-10T08:40:56;21.20;99.90
51950;DHT22;37974;53.218;6.640;2023-06-10T08:46:03;21.40;99.90
51950;DHT22;37974;53.218;6.640;2023-06-10T08:48:41;21.40;99.90
51950;DHT22;37974;53.218;6.640;2023-06-10T08:51:10;21.50;99.90
51950;DHT22;37974;53.218;6.640;2023-06-10T08:53:53;21.50;99.90
51950;DHT22;37974;53.218;6.640;2023-06-10T08:56:26;21.60;99.90
51950;DHT22;37974;53.218;6.640;2023-06-10T08:58:52;21.80;99.90
51950;DHT22;37974;53.218;6.640;2023-06-10T09:01:22;21.90;99.90
51950;DHT22;37974;53.218;6.640;2023-06-10T09:03:50;22.00;99.90
51950;DHT22;37974;53.218;6.640;2023-06-10T09:08:53;22.10;99.90
51950;DHT22;37974;53.218;6.640;2023-06-10T09:11:19;22.10;99.90
51950;DHT22;37974;53.218;6.640;2023-06-10T09:13:48;22.30;99.90
51950;DHT22;37974;53.218;6.640;2023-06-10T09:16:14;22.30;99.90
51950;DHT22;37974;53.218;6.640;2023-06-10T09:18:42;22.40;99.90
51950;DHT22;37974;53.218;6.640;2023-06-10T09:21:08;22.50;99.90
51950;DHT22;37974;53.218;6.640;2023-06-10T09:23:40;22.40;99.90
51950;DHT22;37974;53.218;6.640;2023-06-10T09:26:09;22.50;99.90
51950;DHT22;37974;53.218;6.640;2023-06-10T09:28:36;22.60;99.90
51950;DHT22;37974;53.218;6.640;2023-06-10T09:31:11;22.50;99.90
51950;DHT22;37974;53.218;6.640;2023-06-10T09:33:49;22.80;99.90
51950;DHT22;37974;53.218;6.640;2023-06-10T09:36:25;22.80;99.90
51950;DHT22;37974;53.218;6.640;2023-06-10T09:38:51;22.90;99.90
51950;DHT22;37974;53.218;6.640;2023-06-10T09:41:34;22.90;99.90
51950;DHT22;37974;53.218;6.640;2023-06-10T09:44:24;22.90;99.90
51950;DHT22;37974;53.218;6.640;2023-06-10T09:46:51;23.00;99.90
51950;DHT22;37974;53.218;6.640;2023-06-10T09:49:29;23.10;99.90
51950;DHT22;37974;53.218;6.640;2023-06-10T09:51:55;23.20;99.90
51950;DHT22;37974;53.218;6.640;2023-06-10T09:54:23;23.30;99.90
51950;DHT22;37974;53.218;6.640;2023-06-10T09:56:51;23.40;99.90
51950;DHT22;37974;53.218;6.640;2023-06-10T09:59:32;23.60;99.90
51950;DHT22;37974;53.218;6.640;2023-06-10T10:02:00;23.60;99.90
51950;DHT22;37974;53.218;6.640;2023-06-10T10:04:26;23.70;99.90
51950;DHT22;37974;53.218;6.640;2023-06-10T10:06:58;23.70;99.90
51950;DHT22;37974;53.218;6.640;2023-06-10T10:09:30;23.70;99.90
51950;DHT22;37974;53.218;6.640;2023-06-10T10:11:59;23.80;99.90
51950;DHT22;37974;53.218;6.640;2023-06-10T10:14:28;23.90;99.90
51950;DHT22;37974;53.218;6.640;2023-06-10T10:17:00;24.00;99.90
51950;DHT22;37974;53.218;6.640;2023-06-10T10:22:59;24.10;99.90
51950;DHT22;37974;53.218;6.640;2023-06-10T10:25:43;24.10;99.90
51950;DHT22;37974;53.218;6.640;2023-06-10T10:28:53;24.20;99.90
51950;DHT22;37974;53.218;6.640;2023-06-10T10:31:32;24.20;99.90
51950;DHT22;37974;53.218;6.640;2023-06-10T10:34:07;24.20;99.90
51950;DHT22;37974;53.218;6.640;2023-06-10T10:36:45;24.30;99.90
51950;DHT22;37974;53.218;6.640;2023-06-10T10:39:11;24.30;99.90
51950;DHT22;37974;53.218;6.640;2023-06-10T10:41:47;24.30;99.90
51950;DHT22;37974;53.218;6.640;2023-06-10T10:44:15;24.30;99.90
51950;DHT22;37974;53.218;6.640;2023-06-10T10:46:45;24.40;99.90
51950;DHT22;37974;53.218;6.640;2023-06-10T10:49:20;24.50;99.90
51950;DHT22;37974;53.218;6.640;2023-06-10T10:52:03;24.70;99.90
51950;DHT22;37974;53.218;6.640;2023-06-10T10:57:41;24.70;99.90
51950;DHT22;37974;53.218;6.640;2023-06-10T11:00:10;25.00;99.90
51950;DHT22;37974;53.218;6.640;2023-06-10T11:05:32;24.80;99.90
51950;DHT22;37974;53.218;6.640;2023-06-10T11:08:04;24.60;99.90
51950;DHT22;37974;53.218;6.640;2023-06-10T11:10:51;24.90;99.90
51950;DHT22;37974;53.218;6.640;2023-06-10T11:13:30;25.00;99.90
51950;DHT22;37974;53.218;6.640;2023-06-10T11:15:58;25.10;99.90
51950;DHT22;37974;53.218;6.640;2023-06-10T11:18:38;25.10;99.90
51950;DHT22;37974;53.218;6.640;2023-06-10T11:21:17;25.30;99.90
51950;DHT22;37974;53.218;6.640;2023-06-10T11:23:42;25.30;99.90
51950;DHT22;37974;53.218;6.640;2023-06-10T11:29:03;25.40;99.90
51950;DHT22;37974;53.218;6.640;2023-06-10T11:31:44;25.50;99.90
51950;DHT22;37974;53.218;6.640;2023-06-10T11:34:11;25.40;99.90
51950;DHT22;37974;53.218;6.640;2023-06-10T11:36:39;25.60;99.90
51950;DHT22;37974;53.218;6.640;2023-06-10T11:39:12;25.70;99.90
51950;DHT22;37974;53.218;6.640;2023-06-10T11:41:41;25.70;99.90
51950;DHT22;37974;53.218;6.640;2023-06-10T11:44:12;25.80;99.90
51950;DHT22;37974;53.218;6.640;2023-06-10T11:46:38;25.90;99.90
51950;DHT22;37974;53.218;6.640;2023-06-10T11:49:06;26.00;99.90
51950;DHT22;37974;53.218;6.640;2023-06-10T11:51:37;26.00;99.90
51950;DHT22;37974;53.218;6.640;2023-06-10T11:54:08;26.00;99.90
51950;DHT22;37974;53.218;6.640;2023-06-10T11:56:43;26.10;99.90
51950;DHT22;37974;53.218;6.640;2023-06-10T11:59:11;26.10;99.90
51950;DHT22;37974;53.218;6.640;2023-06-10T12:01:44;26.10;99.70
51950;DHT22;37974;53.218;6.640;2023-06-10T12:04:12;26.10;99.80
51950;DHT22;37974;53.218;6.640;2023-06-10T12:06:45;26.20;98.90
51950;DHT22;37974;53.218;6.640;2023-06-10T12:09:29;26.20;98.60
51950;DHT22;37974;53.218;6.640;2023-06-10T12:11:58;26.30;99.90
51950;DHT22;37974;53.218;6.640;2023-06-10T12:14:57;26.30;99.90
51950;DHT22;37974;53.218;6.640;2023-06-10T12:19:56;26.30;99.90
51950;DHT22;37974;53.218;6.640;2023-06-10T12:22:35;26.40;99.90
51950;DHT22;37974;53.218;6.640;2023-06-10T12:28:13;26.50;99.90
51950;DHT22;37974;53.218;6.640;2023-06-10T12:30:44;26.40;99.90
51950;DHT22;37974;53.218;6.640;2023-06-10T12:33:27;26.50;99.90
51950;DHT22;37974;53.218;6.640;2023-06-10T12:36:07;26.50;99.90
51950;DHT22;37974;53.218;6.640;2023-06-10T12:39:12;26.50;99.90
51950;DHT22;37974;53.218;6.640;2023-06-10T12:41:47;26.60;99.90
51950;DHT22;37974;53.218;6.640;2023-06-10T12:44:14;26.60;99.80
51950;DHT22;37974;53.218;6.640;2023-06-10T12:46:40;26.60;99.00
51950;DHT22;37974;53.218;6.640;2023-06-10T12:49:08;26.70;99.50
51950;DHT22;37974;53.218;6.640;2023-06-10T12:51:51;26.70;99.90
51950;DHT22;37974;53.218;6.640;2023-06-10T12:54:29;26.60;99.90
51950;DHT22;37974;53.218;6.640;2023-06-10T12:56:55;26.50;99.90
51950;DHT22;37974;53.218;6.640;2023-06-10T12:59:21;26.40;99.90
51950;DHT22;37974;53.218;6.640;2023-06-10T13:01:51;26.30;99.70
51950;DHT22;37974;53.218;6.640;2023-06-10T13:04:17;26.30;99.70
51950;DHT22;37974;53.218;6.640;2023-06-10T13:06:48;26.20;99.90
51950;DHT22;37974;53.218;6.640;2023-06-10T13:09:21;26.20;99.90
51950;DHT22;37974;53.218;6.640;2023-06-10T13:11:48;26.20;99.90
51950;DHT22;37974;53.218;6.640;2023-06-10T13:14:14;26.30;99.90
51950;DHT22;37974;53.218;6.640;2023-06-10T13:16:39;26.30;99.90
51950;DHT22;37974;53.218;6.640;2023-06-10T13:19:05;26.20;99.90
51950;DHT22;37974;53.218;6.640;2023-06-10T13:21:33;26.20;99.90
51950;DHT22;37974;53.218;6.640;2023-06-10T13:23:59;26.20;99.80
51950;DHT22;37974;53.218;6.640;2023-06-10T13:26:25;26.20;99.80
51950;DHT22;37974;53.218;6.640;2023-06-10T13:28:50;26.20;99.90
51950;DHT22;37974;53.218;6.640;2023-06-10T13:31:16;26.20;99.80
51950;DHT22;37974;53.218;6.640;2023-06-10T13:33:42;26.20;99.20
51950;DHT22;37974;53.218;6.640;2023-06-10T13:36:09;26.20;98.90
51950;DHT22;37974;53.218;6.640;2023-06-10T13:38:35;26.20;98.70
51950;DHT22;37974;53.218;6.640;2023-06-10T13:41:00;26.10;98.60
51950;DHT22;37974;53.218;6.640;2023-06-10T13:43:26;26.20;98.60
51950;DHT22;37974;53.218;6.640;2023-06-10T13:45:52;26.20;99.30
51950;DHT22;37974;53.218;6.640;2023-06-10T13:48:20;26.20;98.70
51950;DHT22;37974;53.218;6.640;2023-06-10T13:50:46;26.20;98.70
51950;DHT22;37974;53.218;6.640;2023-06-10T13:53:12;26.20;98.70
51950;DHT22;37974;53.218;6.640;2023-06-10T13:55:38;26.20;98.00
51950;DHT22;37974;53.218;6.640;2023-06-10T13:58:07;26.20;97.80
51950;DHT22;37974;53.218;6.640;2023-06-10T14:00:39;26.20;97.40
51950;DHT22;37974;53.218;6.640;2023-06-10T14:03:05;26.20;96.90
51950;DHT22;37974;53.218;6.640;2023-06-10T14:05:31;26.30;96.60
51950;DHT22;37974;53.218;6.640;2023-06-10T14:07:57;26.30;96.30
51950;DHT22;37974;53.218;6.640;2023-06-10T14:10:23;26.30;96.80
51950;DHT22;37974;53.218;6.640;2023-06-10T14:12:48;26.20;96.80
51950;DHT22;37974;53.218;6.640;2023-06-10T14:15:17;26.20;96.70
51950;DHT22;37974;53.218;6.640;2023-06-10T14:17:42;26.20;96.30
51950;DHT22;37974;53.218;6.640;2023-06-10T14:20:08;26.20;95.50
51950;DHT22;37974;53.218;6.640;2023-06-10T14:22:34;26.30;94.60
51950;DHT22;37974;53.218;6.640;2023-06-10T14:25:00;26.30;93.50
51950;DHT22;37974;53.218;6.640;2023-06-10T14:27:26;26.40;93.90
51950;DHT22;37974;53.218;6.640;2023-06-10T14:29:52;26.40;94.30
51950;DHT22;37974;53.218;6.640;2023-06-10T14:32:17;26.50;94.60
51950;DHT22;37974;53.218;6.640;2023-06-10T14:34:46;26.50;93.80
51950;DHT22;37974;53.218;6.640;2023-06-10T14:37:12;26.50;94.70
51950;DHT22;37974;53.218;6.640;2023-06-10T14:39:38;26.60;95.40
51950;DHT22;37974;53.218;6.640;2023-06-10T14:42:04;26.60;94.60
51950;DHT22;37974;53.218;6.640;2023-06-10T14:44:30;26.60;94.50
51950;DHT22;37974;53.218;6.640;2023-06-10T14:46:57;26.60;94.80
51950;DHT22;37974;53.218;6.640;2023-06-10T14:49:26;26.60;94.70
51950;DHT22;37974;53.218;6.640;2023-06-10T14:51:52;26.70;94.70
51950;DHT22;37974;53.218;6.640;2023-06-10T14:54:18;26.70;94.70
51950;DHT22;37974;53.218;6.640;2023-06-10T14:56:44;26.70;94.90
51950;DHT22;37974;53.218;6.640;2023-06-10T14:59:12;26.70;94.90
51950;DHT22;37974;53.218;6.640;2023-06-10T15:01:39;26.70;95.40
51950;DHT22;37974;53.218;6.640;2023-06-10T15:04:04;26.70;95.50
51950;DHT22;37974;53.218;6.640;2023-06-10T15:06:39;26.70;95.40
51950;DHT22;37974;53.218;6.640;2023-06-10T15:09:08;26.70;95.00
51950;DHT22;37974;53.218;6.640;2023-06-10T15:11:33;26.70;94.80
51950;DHT22;37974;53.218;6.640;2023-06-10T15:13:59;26.70;94.70
51950;DHT22;37974;53.218;6.640;2023-06-10T15:16:31;26.80;94.30
51950;DHT22;37974;53.218;6.640;2023-06-10T15:19:12;26.80;93.90
51950;DHT22;37974;53.218;6.640;2023-06-10T15:21:37;26.80;94.10
51950;DHT22;37974;53.218;6.640;2023-06-10T15:24:03;26.80;94.20
51950;DHT22;37974;53.218;6.640;2023-06-10T15:26:41;26.80;94.10
51950;DHT22;37974;53.218;6.640;2023-06-10T15:29:08;26.80;93.80
51950;DHT22;37974;53.218;6.640;2023-06-10T15:31:33;26.90;93.70
51950;DHT22;37974;53.218;6.640;2023-06-10T15:34:00;26.90;94.00
51950;DHT22;37974;53.218;6.640;2023-06-10T15:36:26;26.90;93.10
51950;DHT22;37974;53.218;6.640;2023-06-10T15:38:53;27.00;92.70
51950;DHT22;37974;53.218;6.640;2023-06-10T15:41:28;27.10;92.90
51950;DHT22;37974;53.218;6.640;2023-06-10T15:43:54;27.10;91.60
51950;DHT22;37974;53.218;6.640;2023-06-10T15:46:20;27.20;91.60
51950;DHT22;37974;53.218;6.640;2023-06-10T15:48:46;27.20;91.20
51950;DHT22;37974;53.218;6.640;2023-06-10T15:51:11;27.30;91.20
51950;DHT22;37974;53.218;6.640;2023-06-10T15:53:37;27.30;91.40
51950;DHT22;37974;53.218;6.640;2023-06-10T15:56:13;27.30;91.50
51950;DHT22;37974;53.218;6.640;2023-06-10T15:58:39;27.30;90.40
51950;DHT22;37974;53.218;6.640;2023-06-10T16:01:07;27.30;91.00
51950;DHT22;37974;53.218;6.640;2023-06-10T16:03:40;27.40;90.40
51950;DHT22;37974;53.218;6.640;2023-06-10T16:06:06;27.50;90.30
51950;DHT22;37974;53.218;6.640;2023-06-10T16:08:33;27.50;90.00
51950;DHT22;37974;53.218;6.640;2023-06-10T16:10:59;27.60;90.10
51950;DHT22;37974;53.218;6.640;2023-06-10T16:13:25;27.60;89.60
51950;DHT22;37974;53.218;6.640;2023-06-10T16:15:51;27.60;90.50
51950;DHT22;37974;53.218;6.640;2023-06-10T16:18:19;27.80;90.50
51950;DHT22;37974;53.218;6.640;2023-06-10T16:20:45;27.90;90.00
51950;DHT22;37974;53.218;6.640;2023-06-10T16:23:11;28.00;89.30
51950;DHT22;37974;53.218;6.640;2023-06-10T16:25:37;28.20;88.00
51950;DHT22;37974;53.218;6.640;2023-06-10T16:28:04;28.30;88.50
51950;DHT22;37974;53.218;6.640;2023-06-10T16:30:34;28.40;88.20
51950;DHT22;37974;53.218;6.640;2023-06-10T16:33:01;28.60;87.80
51950;DHT22;37974;53.218;6.640;2023-06-10T16:35:27;28.80;87.50
51950;DHT22;37974;53.218;6.640;2023-06-10T16:37:54;29.00;87.30
51950;DHT22;37974;53.218;6.640;2023-06-10T16:40:22;29.30;87.20
51950;DHT22;37974;53.218;6.640;2023-06-10T16:42:47;29.60;85.60